Time;durP1;ratioP1;P1;durP2;ratioP2;P2;SDS_P1;SDS_P2;PMS_P1;PMS_P2;Temp;Humidity;BMP_temperature;BMP_pressure;BME280_temperature;BME280_humidity;BME280_pressure;Samples;Min_cycle;Max_cycle;Signal;HPM_P1;HPM_P2
2021/01/17 00:00:21;;;;;;;25.27;15.10;;;-1.90;99.90;;;;;;5132041;27;20641;-91
2021/01/17 00:02:48;;;;;;;25.13;14.80;;;-1.90;99.90;;;;;;5137954;27;20176;-91
2021/01/17 00:05:22;;;;;;;25.47;14.70;;;-1.90;99.90;;;;;;5137488;27;20179;-91
2021/01/17 00:07:50;;;;;;;30.53;15.13;;;-2.00;99.90;;;;;;5121441;28;20187;-91
2021/01/17 00:10:27;;;;;;;24.33;14.30;;;-1.90;99.90;;;;;;5139414;28;20239;-91
2021/01/17 00:12:54;;;;;;;22.23;13.13;;;-2.00;99.90;;;;;;5139562;28;20191;-91
2021/01/17 00:15:20;;;;;;;21.37;12.70;;;-1.90;99.90;;;;;;5140725;28;20207;-90
2021/01/17 00:17:47;;;;;;;21.10;13.10;;;-2.00;99.90;;;;;;5141061;28;20186;-91
2021/01/17 00:20:18;;;;;;;22.17;12.93;;;-2.00;99.90;;;;;;5140850;28;20203;-91
2021/01/17 00:22:45;;;;;;;20.17;12.60;;;-2.00;99.90;;;;;;5140315;28;20172;-90
2021/01/17 00:25:14;;;;;;;21.03;12.70;;;-2.00;99.90;;;;;;5135613;28;20166;-90
2021/01/17 00:27:41;;;;;;;20.30;12.77;;;-2.00;99.90;;;;;;5156504;27;20194;-91
2021/01/17 00:30:09;;;;;;;22.20;13.07;;;-2.00;99.90;;;;;;5142719;28;20192;-91
2021/01/17 00:32:35;;;;;;;22.07;13.20;;;-2.00;99.90;;;;;;5135396;28;20165;-91
2021/01/17 00:35:08;;;;;;;21.33;12.63;;;-2.00;99.90;;;;;;5117229;28;20189;-91
2021/01/17 00:37:34;;;;;;;21.60;13.30;;;-2.00;99.90;;;;;;5133066;28;20173;-90
2021/01/17 00:40:00;;;;;;;20.53;13.20;;;-2.10;99.90;;;;;;5135746;28;20180;-90
2021/01/17 00:42:27;;;;;;;23.33;13.33;;;-2.00;99.90;;;;;;5137390;28;20216;-91
2021/01/17 00:44:53;;;;;;;21.43;13.13;;;-2.10;99.90;;;;;;5119370;28;20169;-90
2021/01/17 00:47:19;;;;;;;20.43;13.17;;;-2.10;99.90;;;;;;5133816;28;20177;-90
2021/01/17 00:49:45;;;;;;;24.53;13.97;;;-2.00;99.90;;;;;;5125001;28;20338;-91
2021/01/17 00:52:21;;;;;;;21.17;13.17;;;-2.00;99.90;;;;;;5114818;28;20219;-91
2021/01/17 00:54:50;;;;;;;25.67;15.10;;;-2.00;99.90;;;;;;5136833;28;20156;-90
2021/01/17 00:57:16;;;;;;;22.80;13.67;;;-2.00;99.90;;;;;;5138007;28;20146;-90
2021/01/17 00:59:43;;;;;;;24.70;13.43;;;-2.00;99.90;;;;;;5140949;28;20173;-90
2021/01/17 01:02:09;;;;;;;23.67;13.83;;;-2.00;99.90;;;;;;5140899;28;20163;-90
2021/01/17 01:04:35;;;;;;;22.63;13.33;;;-2.00;99.90;;;;;;5140025;28;20618;-90
2021/01/17 01:07:01;;;;;;;20.80;12.93;;;-1.90;99.90;;;;;;5139172;28;20168;-90
2021/01/17 01:09:27;;;;;;;19.73;12.50;;;-1.90;99.90;;;;;;5139886;28;20187;-90
2021/01/17 01:11:53;;;;;;;21.43;12.90;;;-2.00;99.90;;;;;;5137854;28;20227;-88
2021/01/17 01:14:19;;;;;;;23.03;12.77;;;-1.90;99.90;;;;;;5139282;28;20167;-90
2021/01/17 01:16:52;;;;;;;22.40;13.13;;;-2.00;99.90;;;;;;5138703;28;20187;-90
2021/01/17 01:19:19;;;;;;;21.87;13.27;;;-2.00;99.90;;;;;;5140398;28;20185;-89
2021/01/17 01:21:45;;;;;;;21.67;12.63;;;-2.00;99.90;;;;;;5132306;28;20164;-90
2021/01/17 01:24:11;;;;;;;20.27;12.67;;;-2.00;99.90;;;;;;5117980;28;20246;-91
2021/01/17 01:26:45;;;;;;;21.30;12.50;;;-2.00;99.90;;;;;;5122686;28;20177;-91
2021/01/17 01:29:14;;;;;;;22.20;12.93;;;-2.00;99.90;;;;;;5119352;28;20186;-91
2021/01/17 01:31:41;;;;;;;22.77;12.40;;;-2.00;99.90;;;;;;5124169;28;20222;-90
2021/01/17 01:34:07;;;;;;;20.43;12.33;;;-1.90;99.90;;;;;;5120324;28;20204;-91
2021/01/17 01:36:37;;;;;;;19.17;12.70;;;-1.90;99.90;;;;;;5118996;28;20190;-91
2021/01/17 01:39:07;;;;;;;21.83;13.80;;;-1.90;99.90;;;;;;5119402;28;20168;-91
2021/01/17 01:41:36;;;;;;;19.90;12.50;;;-1.90;99.90;;;;;;5119272;28;20183;-90
2021/01/17 01:44:03;;;;;;;21.47;12.33;;;-1.90;99.90;;;;;;5097928;28;20179;-90
2021/01/17 01:46:30;;;;;;;18.07;12.00;;;-1.90;99.90;;;;;;5098210;28;20932;-91
2021/01/17 01:49:00;;;;;;;18.30;11.77;;;-1.90;99.90;;;;;;5098517;28;20176;-91
2021/01/17 01:51:26;;;;;;;21.30;12.20;;;-1.80;99.90;;;;;;5099882;28;20205;-91
2021/01/17 01:53:54;;;;;;;20.83;12.90;;;-1.90;99.90;;;;;;5099794;28;20243;-91
2021/01/17 01:56:23;;;;;;;20.60;12.97;;;-1.80;99.90;;;;;;5082892;28;20185;-90
2021/01/17 01:58:52;;;;;;;20.80;12.63;;;-1.80;99.90;;;;;;5101996;28;20633;-90
2021/01/17 02:01:18;;;;;;;21.60;11.87;;;-1.80;99.90;;;;;;5119900;28;20295;-90
2021/01/17 02:03:49;;;;;;;18.27;11.83;;;-1.80;99.90;;;;;;5121104;28;20179;-90
2021/01/17 02:06:27;;;;;;;21.13;12.60;;;-1.80;99.90;;;;;;5122721;28;20176;-90
2021/01/17 02:08:56;;;;;;;21.20;13.03;;;-1.80;99.90;;;;;;5120492;28;20176;-91
2021/01/17 02:11:24;;;;;;;20.10;12.13;;;-1.80;99.90;;;;;;5120606;28;20236;-90
2021/01/17 02:14:19;;;;;;;19.07;12.13;;;-1.80;99.90;;;;;;5120353;28;20603;-90
2021/01/17 02:16:47;;;;;;;19.63;12.07;;;-1.70;99.90;;;;;;5098103;28;20249;-90
2021/01/17 02:19:15;;;;;;;19.50;12.57;;;-1.70;99.90;;;;;;5119294;28;20261;-89
2021/01/17 02:21:56;;;;;;;19.43;11.47;;;-1.70;99.90;;;;;;5119276;28;20177;-90
2021/01/17 02:24:30;;;;;;;20.07;11.93;;;-1.70;99.90;;;;;;5101453;28;20272;-90
2021/01/17 02:26:56;;;;;;;19.73;12.03;;;-1.80;99.90;;;;;;5117937;28;20181;-90
2021/01/17 02:29:23;;;;;;;19.90;12.00;;;-1.70;99.90;;;;;;5117783;28;20173;-90
2021/01/17 02:31:50;;;;;;;19.87;11.90;;;-1.70;99.90;;;;;;5120591;28;20205;-91
2021/01/17 02:34:16;;;;;;;21.23;12.23;;;-1.70;99.90;;;;;;5128432;27;20203;-90
2021/01/17 02:36:47;;;;;;;23.63;12.77;;;-1.80;99.90;;;;;;5144613;27;20184;-90
2021/01/17 02:39:59;;;;;;;20.20;11.90;;;-1.80;99.90;;;;;;5148541;27;20192;-90
2021/01/17 02:42:25;;;;;;;18.23;11.40;;;-1.80;99.90;;;;;;5135401;27;20621;-90
2021/01/17 02:44:52;;;;;;;20.67;12.30;;;-1.80;99.90;;;;;;5541454;22;20673;-88
2021/01/17 02:47:17;;;;;;;23.03;12.77;;;-1.80;99.90;;;;;;5055252;28;20175;-88
2021/01/17 02:49:43;;;;;;;17.60;11.50;;;-1.90;99.90;;;;;;5055564;28;20184;-90
2021/01/17 02:52:10;;;;;;;19.60;12.53;;;-1.90;99.90;;;;;;5054999;28;20215;-89
2021/01/17 02:54:41;;;;;;;21.80;13.30;;;-1.90;99.90;;;;;;5054991;28;20187;-89
2021/01/17 02:57:11;;;;;;;20.33;12.00;;;-1.90;99.90;;;;;;5055049;28;20605;-88
2021/01/17 03:00:00;;;;;;;18.37;11.77;;;-1.90;99.90;;;;;;5054796;28;20206;-88
2021/01/17 03:02:35;;;;;;;20.63;12.40;;;-1.90;99.90;;;;;;5055248;28;20185;-88
2021/01/17 03:05:07;;;;;;;21.00;12.83;;;-1.90;99.90;;;;;;5055150;28;20175;-89
2021/01/17 03:07:35;;;;;;;23.07;12.53;;;-1.90;99.90;;;;;;5054943;28;20260;-88
2021/01/17 03:10:04;;;;;;;19.27;12.00;;;-1.90;99.90;;;;;;5055127;28;20206;-91
2021/01/17 03:12:33;;;;;;;20.50;13.00;;;-1.90;99.90;;;;;;5055000;28;20213;-89
2021/01/17 03:15:03;;;;;;;21.10;12.60;;;-1.90;99.90;;;;;;5064468;28;20240;-89
2021/01/17 03:17:29;;;;;;;19.33;11.57;;;-1.90;99.90;;;;;;5075093;28;20173;-89
2021/01/17 03:19:57;;;;;;;21.53;11.90;;;-1.90;99.90;;;;;;5074521;28;20249;-89
2021/01/17 03:22:24;;;;;;;18.10;12.03;;;-1.90;99.90;;;;;;5075270;28;20229;-89
2021/01/17 03:24:50;;;;;;;19.37;12.20;;;-2.00;99.90;;;;;;5075274;28;20513;-88
2021/01/17 03:27:16;;;;;;;20.60;11.77;;;-2.00;99.90;;;;;;5075315;28;20177;-89
2021/01/17 03:29:43;;;;;;;20.37;12.40;;;-2.00;99.90;;;;;;5075171;28;20614;-88
2021/01/17 03:32:09;;;;;;;22.03;11.83;;;-2.00;99.90;;;;;;5075391;28;20214;-88
2021/01/17 03:34:35;;;;;;;19.60;11.60;;;-2.00;99.90;;;;;;5058815;28;20190;-89
2021/01/17 03:37:03;;;;;;;19.53;12.40;;;-2.00;99.90;;;;;;5075440;28;20188;-89
2021/01/17 03:39:29;;;;;;;20.70;12.33;;;-2.00;99.90;;;;;;5064699;28;20186;-89
2021/01/17 03:41:59;;;;;;;17.50;11.20;;;-2.00;99.90;;;;;;5075959;28;20607;-90
2021/01/17 03:44:24;;;;;;;18.50;11.53;;;-2.00;99.90;;;;;;5074995;28;20720;-88
2021/01/17 03:46:51;;;;;;;16.50;10.77;;;-2.10;99.90;;;;;;5058105;28;20178;-89
2021/01/17 03:49:17;;;;;;;18.07;11.23;;;-2.00;99.90;;;;;;5075327;28;20170;-91
2021/01/17 03:51:43;;;;;;;17.90;11.83;;;-2.10;99.90;;;;;;5074783;28;20223;-89
2021/01/17 03:54:08;;;;;;;17.47;11.33;;;-2.00;99.90;;;;;;5074017;28;20189;-89
2021/01/17 03:56:34;;;;;;;17.53;11.77;;;-2.10;99.90;;;;;;5074478;28;20561;-89
2021/01/17 03:59:00;;;;;;;22.50;12.43;;;-2.10;99.90;;;;;;5074343;28;20178;-88
2021/01/17 04:01:25;;;;;;;16.33;11.60;;;-2.10;99.90;;;;;;5073493;28;20631;-89
2021/01/17 04:03:57;;;;;;;18.40;11.60;;;-2.10;99.90;;;;;;5073894;28;20174;-89
2021/01/17 04:06:25;;;;;;;17.47;11.17;;;-2.10;99.90;;;;;;5073933;28;20177;-89
2021/01/17 04:08:51;;;;;;;19.30;11.87;;;-2.10;99.90;;;;;;5074200;28;20185;-90
2021/01/17 04:11:17;;;;;;;19.57;11.70;;;-2.20;99.90;;;;;;5075112;28;20213;-89
2021/01/17 04:13:43;;;;;;;17.97;11.40;;;-2.20;99.90;;;;;;5060694;28;20270;-89
2021/01/17 04:16:09;;;;;;;17.33;11.10;;;-2.20;99.90;;;;;;5077043;28;20177;-88
2021/01/17 04:18:35;;;;;;;18.70;11.93;;;-2.20;99.90;;;;;;5077973;28;20181;-89
2021/01/17 04:21:01;;;;;;;17.53;11.40;;;-2.20;99.90;;;;;;5076970;28;20287;-89
2021/01/17 04:23:27;;;;;;;19.37;11.43;;;-2.20;99.90;;;;;;5077111;28;20201;-89
2021/01/17 04:25:52;;;;;;;18.33;11.20;;;-2.30;99.90;;;;;;5077163;28;20180;-89
2021/01/17 04:28:19;;;;;;;18.50;11.03;;;-2.20;99.90;;;;;;5077606;28;20181;-88
2021/01/17 04:30:45;;;;;;;21.93;11.87;;;-2.30;99.90;;;;;;5077283;28;20209;-89
2021/01/17 04:33:11;;;;;;;18.43;10.47;;;-2.30;99.90;;;;;;5079811;28;20182;-89
2021/01/17 04:35:37;;;;;;;17.50;11.37;;;-2.20;99.90;;;;;;5080915;28;20184;-89
2021/01/17 04:38:03;;;;;;;20.23;11.70;;;-2.30;99.90;;;;;;5081337;28;20201;-89
2021/01/17 04:40:30;;;;;;;17.33;11.27;;;-2.20;99.90;;;;;;5081597;28;20165;-89
2021/01/17 04:43:28;;;;;;;17.03;10.53;;;-2.20;99.90;;;;;;5080360;28;20182;-90
2021/01/17 04:45:58;;;;;;;19.40;11.13;;;-2.20;99.90;;;;;;5080668;28;20229;-89
2021/01/17 04:48:25;;;;;;;16.77;10.57;;;-2.20;99.90;;;;;;5081441;28;20187;-89
2021/01/17 04:51:03;;;;;;;18.83;11.17;;;-2.20;99.90;;;;;;5081894;28;20223;-89
2021/01/17 04:53:30;;;;;;;19.53;11.83;;;-2.20;99.90;;;;;;5080811;28;20271;-89
2021/01/17 04:56:29;;;;;;;16.50;10.63;;;-2.20;99.90;;;;;;5080830;28;20225;-89
2021/01/17 04:59:14;;;;;;;16.37;10.27;;;-2.20;99.90;;;;;;5076236;28;20290;-89
2021/01/17 05:02:20;;;;;;;19.17;11.17;;;-2.20;99.90;;;;;;5084479;28;20186;-89
2021/01/17 05:05:15;;;;;;;18.97;11.63;;;-2.30;99.90;;;;;;5054394;28;20192;-89
2021/01/17 05:07:55;;;;;;;18.77;10.90;;;-2.20;99.90;;;;;;5088938;28;20194;-88
2021/01/17 05:10:34;;;;;;;18.93;11.17;;;-2.30;99.90;;;;;;5085811;28;20187;-88
2021/01/17 05:13:12;;;;;;;22.13;11.63;;;-2.20;99.90;;;;;;5088456;28;20206;-88
2021/01/17 05:15:43;;;;;;;23.43;11.80;;;-2.20;99.90;;;;;;5088635;28;20167;-89
2021/01/17 05:18:10;;;;;;;18.47;11.10;;;-2.30;99.90;;;;;;5088607;28;20184;-89
2021/01/17 05:20:45;;;;;;;18.67;11.30;;;-2.30;99.90;;;;;;5086521;28;20181;-89
2021/01/17 05:23:11;;;;;;;17.93;11.17;;;-2.30;99.90;;;;;;5086229;28;20189;-89
2021/01/17 05:25:42;;;;;;;19.77;11.53;;;-2.30;99.90;;;;;;5087555;28;20169;-88
2021/01/17 05:28:08;;;;;;;19.00;11.53;;;-2.30;99.90;;;;;;5071569;28;20245;-89
2021/01/17 05:30:35;;;;;;;17.97;10.83;;;-2.30;99.90;;;;;;5086756;28;20204;-88
2021/01/17 05:33:07;;;;;;;18.87;11.13;;;-2.30;99.90;;;;;;5085544;28;20207;-87
2021/01/17 05:35:34;;;;;;;18.87;10.73;;;-2.30;99.90;;;;;;5069946;28;20211;-89
2021/01/17 05:37:59;;;;;;;16.73;11.20;;;-2.30;99.90;;;;;;5087863;28;20184;-88
2021/01/17 05:40:32;;;;;;;17.70;10.50;;;-2.20;99.90;;;;;;5087312;28;20193;-90
2021/01/17 05:43:00;;;;;;;17.53;10.93;;;-2.20;99.90;;;;;;5054535;28;20244;-89
2021/01/17 05:45:26;;;;;;;18.00;10.70;;;-2.30;99.90;;;;;;5070745;28;20335;-88
2021/01/17 05:48:02;;;;;;;18.77;10.80;;;-2.20;99.90;;;;;;5087021;28;20188;-90
2021/01/17 05:50:30;;;;;;;17.57;10.23;;;-2.20;99.90;;;;;;5071541;28;20216;-88
2021/01/17 05:53:00;;;;;;;17.83;10.63;;;-2.20;99.90;;;;;;5088073;28;20181;-88
2021/01/17 05:55:41;;;;;;;17.27;9.70;;;-2.30;99.90;;;;;;5088745;28;20173;-88
2021/01/17 05:58:31;;;;;;;17.47;11.00;;;-2.30;99.90;;;;;;5087350;28;20245;-89
2021/01/17 06:01:18;;;;;;;17.50;10.23;;;-2.40;99.90;;;;;;5088500;28;20269;-89
2021/01/17 06:03:58;;;;;;;17.17;10.63;;;-2.40;99.90;;;;;;5086803;28;20211;-88
2021/01/17 06:06:29;;;;;;;16.30;10.37;;;-2.50;99.90;;;;;;5065272;28;20177;-89
2021/01/17 06:08:57;;;;;;;17.80;10.73;;;-2.50;99.90;;;;;;5067694;28;20187;-88
2021/01/17 06:11:27;;;;;;;17.40;10.90;;;-2.50;99.90;;;;;;5067226;28;20636;-91
2021/01/17 06:14:02;;;;;;;17.07;10.87;;;-2.50;99.90;;;;;;5067637;28;20200;-89
2021/01/17 06:16:39;;;;;;;17.57;11.40;;;-2.60;99.90;;;;;;5051176;28;20185;-89
2021/01/17 06:19:09;;;;;;;18.30;10.67;;;-2.50;99.90;;;;;;5064549;28;20199;-89
2021/01/17 06:21:36;;;;;;;16.83;10.67;;;-2.50;99.90;;;;;;5065956;28;20182;-89
2021/01/17 06:24:07;;;;;;;18.43;11.03;;;-2.50;99.90;;;;;;5056152;28;20174;-89
2021/01/17 06:26:37;;;;;;;18.90;10.77;;;-2.50;99.90;;;;;;5055610;28;20231;-88
2021/01/17 06:29:10;;;;;;;18.17;10.30;;;-2.50;99.90;;;;;;5056177;28;20522;-88
2021/01/17 06:31:36;;;;;;;17.70;10.47;;;-2.50;99.90;;;;;;5055969;28;20294;-89
2021/01/17 06:34:09;;;;;;;16.57;10.67;;;-2.60;99.90;;;;;;5060156;28;20174;-88
2021/01/17 06:36:37;;;;;;;18.23;11.67;;;-2.60;99.90;;;;;;5078543;28;20280;-89
2021/01/17 06:39:04;;;;;;;17.50;10.40;;;-2.50;99.90;;;;;;5078652;28;20264;-89
2021/01/17 06:41:34;;;;;;;19.07;10.83;;;-2.50;99.90;;;;;;5078654;28;20180;-89
2021/01/17 06:44:11;;;;;;;19.90;11.07;;;-2.60;99.90;;;;;;5087552;28;20178;-89
2021/01/17 06:46:47;;;;;;;17.57;10.90;;;-2.60;99.90;;;;;;5089434;28;20284;-89
2021/01/17 06:49:17;;;;;;;17.97;11.37;;;-2.60;99.90;;;;;;5078145;28;20189;-89
2021/01/17 06:51:44;;;;;;;16.43;10.13;;;-2.60;99.90;;;;;;5077186;28;20689;-88
2021/01/17 06:54:10;;;;;;;19.37;11.40;;;-2.60;99.90;;;;;;5080546;28;20190;-88
2021/01/17 06:56:37;;;;;;;22.00;11.30;;;-2.60;99.90;;;;;;5075911;28;20220;-89
2021/01/17 06:59:03;;;;;;;19.37;11.23;;;-2.60;99.90;;;;;;5077605;28;20234;-92
2021/01/17 07:01:29;;;;;;;20.77;11.60;;;-2.50;99.90;;;;;;5076814;28;20181;-91
2021/01/17 07:04:13;;;;;;;22.47;11.23;;;-2.50;99.90;;;;;;5066215;28;20275;-96
2021/01/17 07:06:54;;;;;;;20.03;11.53;;;-2.50;99.90;;;;;;5079153;28;20177;-91
2021/01/17 07:09:31;;;;;;;19.87;11.53;;;-2.50;99.90;;;;;;5066687;28;20188;-90
2021/01/17 07:12:10;;;;;;;21.30;11.40;;;-2.40;99.90;;;;;;5064916;28;20208;-89
2021/01/17 07:14:40;;;;;;;16.70;10.23;;;-2.40;99.90;;;;;;5064433;28;20615;-89
2021/01/17 07:17:09;;;;;;;20.77;11.77;;;-2.40;99.90;;;;;;5055510;28;20279;-90
2021/01/17 07:19:39;;;;;;;19.13;11.07;;;-2.30;99.90;;;;;;5054394;28;20192;-90
2021/01/17 07:22:05;;;;;;;17.53;10.73;;;-2.30;99.90;;;;;;5056522;28;20185;-90
2021/01/17 07:24:34;;;;;;;21.07;11.30;;;-2.30;99.90;;;;;;5056883;28;20183;-91
2021/01/17 07:27:29;;;;;;;18.33;11.27;;;-2.20;99.90;;;;;;5071656;28;20249;-94
2021/01/17 07:29:58;;;;;;;21.60;11.17;;;-2.20;99.90;;;;;;5023376;28;20182;-91
2021/01/17 07:32:36;;;;;;;18.53;10.87;;;-2.10;99.90;;;;;;5077534;28;20223;-89
2021/01/17 07:35:08;;;;;;;19.50;11.37;;;-2.10;99.90;;;;;;5064140;28;20290;-89
2021/01/17 07:37:35;;;;;;;19.87;12.43;;;-2.10;99.90;;;;;;5053982;28;20181;-89
2021/01/17 07:40:08;;;;;;;18.57;11.10;;;-2.10;99.90;;;;;;5055473;28;20239;-90
2021/01/17 07:42:36;;;;;;;19.33;11.40;;;-2.10;99.90;;;;;;5055048;28;20182;-89
2021/01/17 07:45:20;;;;;;;17.87;10.43;;;-2.10;99.90;;;;;;5064460;28;20604;-88
2021/01/17 07:47:46;;;;;;;16.90;10.70;;;-2.10;99.90;;;;;;5057750;28;20213;-89
2021/01/17 07:50:13;;;;;;;20.20;11.67;;;-2.10;99.90;;;;;;5055796;28;20165;-88
2021/01/17 07:52:54;;;;;;;19.47;11.40;;;-2.00;99.90;;;;;;5056019;28;20181;-91
2021/01/17 07:55:21;;;;;;;19.80;11.23;;;-2.00;99.90;;;;;;5055341;28;20183;-92
2021/01/17 07:57:50;;;;;;;16.97;11.13;;;-2.00;99.90;;;;;;5055026;28;20204;-90
2021/01/17 08:00:16;;;;;;;19.57;11.13;;;-2.00;99.90;;;;;;5055335;28;20186;-90
2021/01/17 08:02:49;;;;;;;17.77;11.47;;;-1.90;99.90;;;;;;5053152;28;20185;-89
2021/01/17 08:05:14;;;;;;;16.77;11.30;;;-1.90;99.90;;;;;;5065258;28;20274;-91
2021/01/17 08:07:40;;;;;;;18.47;11.20;;;-2.00;99.90;;;;;;5072835;28;20272;-89
2021/01/17 08:10:07;;;;;;;21.23;11.30;;;-1.90;99.90;;;;;;5074005;28;20206;-91
2021/01/17 08:12:35;;;;;;;20.57;11.17;;;-1.90;99.90;;;;;;5074500;28;20197;-89
2021/01/17 08:15:18;;;;;;;16.37;10.50;;;-1.90;99.90;;;;;;5075939;28;20177;-88
2021/01/17 08:17:44;;;;;;;17.97;10.77;;;-1.90;99.90;;;;;;5075824;28;20173;-89
2021/01/17 08:20:20;;;;;;;18.63;11.57;;;-1.90;99.90;;;;;;5075658;28;20603;-89
2021/01/17 08:22:46;;;;;;;19.70;11.53;;;-1.80;99.90;;;;;;5076912;28;20222;-90
2021/01/17 08:25:13;;;;;;;16.23;10.57;;;-1.80;99.90;;;;;;5076511;28;20165;-90
2021/01/17 08:27:46;;;;;;;18.40;11.50;;;-1.90;99.90;;;;;;5075768;28;20178;-90
2021/01/17 08:30:13;;;;;;;16.63;10.73;;;-1.80;99.90;;;;;;5074813;28;20184;-91
2021/01/17 08:32:41;;;;;;;17.93;10.70;;;-1.80;99.90;;;;;;5074462;28;20266;-91
2021/01/17 08:35:24;;;;;;;18.93;11.73;;;-1.70;99.90;;;;;;5075067;28;20214;-92
2021/01/17 08:38:16;;;;;;;19.40;10.57;;;-1.70;99.90;;;;;;5075426;28;20521;-92
2021/01/17 08:40:50;;;;;;;17.23;10.37;;;-1.80;99.90;;;;;;5073256;28;20568;-91
2021/01/17 08:43:18;;;;;;;19.37;10.37;;;-1.80;99.90;;;;;;5073919;28;20180;-92
2021/01/17 08:45:48;;;;;;;20.57;11.30;;;-1.80;99.90;;;;;;5073206;28;20229;-91
2021/01/17 08:48:17;;;;;;;16.20;10.37;;;-1.70;99.90;;;;;;5072964;28;20185;-91
2021/01/17 08:50:47;;;;;;;15.03;10.00;;;-1.70;99.90;;;;;;5072904;28;20214;-90
2021/01/17 08:53:31;;;;;;;17.17;10.70;;;-1.70;99.90;;;;;;5057272;28;20280;-91
2021/01/17 08:56:19;;;;;;;16.03;9.77;;;-1.70;99.90;;;;;;5078803;28;20176;-91
2021/01/17 08:58:52;;;;;;;17.37;10.67;;;-1.70;99.90;;;;;;5074706;28;20181;-89
2021/01/17 09:01:20;;;;;;;16.20;10.17;;;-1.60;99.90;;;;;;5073280;28;20181;-90
2021/01/17 09:03:51;;;;;;;14.33;9.77;;;-1.70;99.90;;;;;;5063955;28;20186;-91
2021/01/17 09:06:19;;;;;;;16.70;10.43;;;-1.60;99.90;;;;;;5073094;28;20315;-91
2021/01/17 09:08:59;;;;;;;14.73;9.73;;;-1.60;99.90;;;;;;5073011;28;20200;-90
2021/01/17 09:11:24;;;;;;;17.67;10.97;;;-1.60;99.90;;;;;;5072879;28;20216;-89
2021/01/17 09:14:26;;;;;;;18.57;10.40;;;-1.60;99.90;;;;;;5073674;28;20240;-89
2021/01/17 09:17:01;;;;;;;16.67;10.13;;;-1.60;99.90;;;;;;5072729;28;20181;-89
2021/01/17 09:19:34;;;;;;;17.30;9.90;;;-1.50;99.90;;;;;;5075585;28;20168;-90
2021/01/17 09:22:02;;;;;;;17.57;11.07;;;-1.50;99.90;;;;;;5075963;28;20174;-92
2021/01/17 09:24:34;;;;;;;16.60;10.40;;;-1.50;99.90;;;;;;5078620;28;20184;-92
2021/01/17 09:27:03;;;;;;;18.60;10.37;;;-1.40;99.90;;;;;;5077178;28;20185;-92
2021/01/17 09:29:32;;;;;;;18.33;11.17;;;-1.40;99.90;;;;;;5060087;28;20196;-89
2021/01/17 09:32:17;;;;;;;17.10;10.43;;;-1.30;99.90;;;;;;5076877;28;20213;-89
2021/01/17 09:34:49;;;;;;;16.20;9.97;;;-1.30;99.90;;;;;;5077894;28;20276;-89
2021/01/17 09:37:19;;;;;;;19.10;10.87;;;-1.20;99.90;;;;;;5079827;28;20197;-90
2021/01/17 09:39:48;;;;;;;15.90;9.90;;;-1.10;99.90;;;;;;5076670;28;20185;-90
2021/01/17 09:42:17;;;;;;;17.30;10.63;;;-1.10;99.90;;;;;;5074952;28;20632;-90
2021/01/17 09:44:54;;;;;;;17.63;10.93;;;-1.10;99.90;;;;;;5075507;28;20648;-89
2021/01/17 09:47:22;;;;;;;19.67;11.07;;;-1.00;99.90;;;;;;5076805;28;20173;-90
2021/01/17 09:49:48;;;;;;;17.53;11.47;;;-0.90;99.90;;;;;;5075058;28;20659;-90
2021/01/17 09:52:25;;;;;;;19.20;11.77;;;-0.90;99.90;;;;;;5066595;28;20197;-90
2021/01/17 09:54:53;;;;;;;20.80;12.13;;;-0.80;99.90;;;;;;5076653;28;20173;-91
2021/01/17 09:57:23;;;;;;;19.23;12.03;;;-0.70;99.90;;;;;;5076018;28;20209;-90
2021/01/17 09:59:55;;;;;;;18.43;10.97;;;-0.70;99.90;;;;;;5076934;28;20182;-90
2021/01/17 10:02:23;;;;;;;17.90;11.30;;;-0.60;99.90;;;;;;5076842;28;20162;-90
2021/01/17 10:04:50;;;;;;;16.47;11.03;;;-0.60;99.90;;;;;;5075744;28;20178;-90
2021/01/17 10:07:18;;;;;;;18.90;10.53;;;-0.60;99.90;;;;;;5075876;28;20293;-91
2021/01/17 10:09:44;;;;;;;16.83;10.97;;;-0.60;99.90;;;;;;5075929;28;20191;-91
2021/01/17 10:12:11;;;;;;;17.60;11.47;;;-0.60;99.90;;;;;;5076249;28;20274;-91
2021/01/17 10:14:37;;;;;;;17.43;10.60;;;-0.60;99.90;;;;;;5075833;28;20552;-92
2021/01/17 10:17:06;;;;;;;16.07;10.47;;;-0.60;99.90;;;;;;5075858;28;20184;-90
2021/01/17 10:19:34;;;;;;;15.60;10.20;;;-0.60;99.90;;;;;;5076723;28;20181;-90
2021/01/17 10:22:01;;;;;;;17.57;10.47;;;-0.50;99.90;;;;;;5076157;28;20175;-90
2021/01/17 10:24:28;;;;;;;15.63;10.43;;;-0.50;99.90;;;;;;5076690;28;20179;-91
2021/01/17 10:26:57;;;;;;;16.43;11.30;;;-0.50;99.90;;;;;;5075683;28;20180;-91
2021/01/17 10:29:42;;;;;;;17.60;10.83;;;-0.50;99.90;;;;;;5076389;28;20175;-91
2021/01/17 10:32:12;;;;;;;18.53;10.80;;;-0.40;99.90;;;;;;5076789;28;20209;-91
2021/01/17 10:34:43;;;;;;;17.53;10.23;;;-0.40;99.90;;;;;;5094572;28;20187;-90
2021/01/17 10:37:11;;;;;;;14.67;10.03;;;-0.40;99.90;;;;;;5093487;28;20538;-90
2021/01/17 10:39:40;;;;;;;17.70;10.13;;;-0.40;99.90;;;;;;5097399;28;20179;-90
2021/01/17 10:42:24;;;;;;;15.43;10.53;;;-0.40;99.90;;;;;;5092056;28;20210;-90
2021/01/17 10:45:08;;;;;;;18.97;10.67;;;-0.40;99.90;;;;;;5095715;28;20230;-94
2021/01/17 10:47:58;;;;;;;15.97;10.10;;;-0.40;99.90;;;;;;5094071;28;20209;-90
2021/01/17 10:50:28;;;;;;;14.20;9.33;;;-0.40;99.90;;;;;;5093805;28;20177;-91
2021/01/17 10:53:17;;;;;;;16.23;10.23;;;-0.40;99.90;;;;;;5092255;28;20173;-95
2021/01/17 10:55:48;;;;;;;17.30;10.83;;;-0.30;99.90;;;;;;5092574;28;20174;-92
2021/01/17 10:58:20;;;;;;;16.50;10.23;;;-0.20;99.90;;;;;;5086125;28;20200;-91
2021/01/17 11:00:55;;;;;;;16.37;10.30;;;-0.20;99.90;;;;;;5093331;28;20175;-95
2021/01/17 11:03:36;;;;;;;15.50;10.50;;;-0.20;99.90;;;;;;5088824;28;20147;-92
2021/01/17 11:06:06;;;;;;;15.53;10.77;;;-0.10;99.90;;;;;;5090695;28;20181;-91
2021/01/17 11:08:53;;;;;;;16.23;10.17;;;-0.10;99.90;;;;;;5072232;28;20163;-91
2021/01/17 11:11:21;;;;;;;15.13;10.23;;;-0.10;99.90;;;;;;5057169;28;20225;-92
2021/01/17 11:13:57;;;;;;;18.27;10.40;;;-0.10;99.90;;;;;;5070370;28;20183;-91
2021/01/17 11:16:37;;;;;;;15.73;10.03;;;-0.10;99.90;;;;;;5070863;28;20200;-91
2021/01/17 11:19:13;;;;;;;15.10;10.23;;;0.00;99.90;;;;;;5069800;28;20185;-90
2021/01/17 11:21:43;;;;;;;17.53;10.60;;;0.00;99.90;;;;;;5070389;28;20168;-90
2021/01/17 11:24:10;;;;;;;17.33;10.63;;;0.00;99.90;;;;;;5068899;28;20185;-91
2021/01/17 11:26:37;;;;;;;17.50;10.30;;;0.00;99.90;;;;;;5070279;28;20181;-91
2021/01/17 11:29:16;;;;;;;15.20;10.30;;;0.10;99.90;;;;;;5051802;28;20188;-91
2021/01/17 11:31:47;;;;;;;17.67;10.90;;;0.10;99.90;;;;;;5082191;28;20241;-90
2021/01/17 11:34:16;;;;;;;15.20;10.33;;;0.20;99.90;;;;;;5089454;28;20187;-90
2021/01/17 11:36:42;;;;;;;14.57;10.23;;;0.20;99.90;;;;;;5088292;28;20176;-90
2021/01/17 11:39:08;;;;;;;15.20;10.10;;;0.20;99.90;;;;;;5088308;28;20210;-89
2021/01/17 11:41:40;;;;;;;13.37;9.80;;;0.30;99.90;;;;;;5083851;28;20177;-90
2021/01/17 11:44:10;;;;;;;17.07;10.20;;;0.20;99.90;;;;;;5081031;28;20516;-90
2021/01/17 11:46:36;;;;;;;15.07;9.80;;;0.30;99.90;;;;;;5045066;28;20193;-90
2021/01/17 11:49:03;;;;;;;16.10;10.27;;;0.30;99.90;;;;;;5048996;28;20633;-90
2021/01/17 11:51:29;;;;;;;14.17;9.47;;;0.40;99.90;;;;;;5048481;28;20195;-91
2021/01/17 11:53:55;;;;;;;15.03;9.67;;;0.40;99.90;;;;;;5033343;28;20201;-90
2021/01/17 11:56:25;;;;;;;17.20;9.87;;;0.40;99.90;;;;;;5033262;28;20201;-90
2021/01/17 11:58:51;;;;;;;14.93;10.23;;;0.40;99.90;;;;;;5030902;28;20555;-90
2021/01/17 12:01:25;;;;;;;13.97;9.60;;;0.40;99.90;;;;;;5030882;28;20234;-91
2021/01/17 12:03:59;;;;;;;15.17;9.93;;;0.40;99.90;;;;;;5024577;28;20180;-90
2021/01/17 12:06:24;;;;;;;13.00;9.17;;;0.50;99.90;;;;;;5025510;28;20616;-90
2021/01/17 12:09:03;;;;;;;14.20;9.50;;;0.50;99.90;;;;;;5025553;28;20206;-90
2021/01/17 12:11:43;;;;;;;15.07;9.33;;;0.50;99.90;;;;;;5022745;28;20569;-90
2021/01/17 12:14:10;;;;;;;14.00;9.43;;;0.50;99.90;;;;;;5018081;28;20181;-90
2021/01/17 12:16:39;;;;;;;17.73;10.13;;;0.50;99.90;;;;;;5024933;28;20184;-90
2021/01/17 12:19:06;;;;;;;13.77;9.40;;;0.40;99.90;;;;;;5024959;28;20179;-90
2021/01/17 12:21:34;;;;;;;13.83;9.10;;;0.40;99.90;;;;;;5021820;28;20274;-90
2021/01/17 12:24:02;;;;;;;12.77;9.13;;;0.40;99.90;;;;;;5021289;28;20229;-91
2021/01/17 12:26:28;;;;;;;13.23;9.20;;;0.50;99.90;;;;;;5032404;28;20186;-90
2021/01/17 12:28:55;;;;;;;13.00;9.17;;;0.50;99.90;;;;;;5033881;28;20224;-90
2021/01/17 12:31:22;;;;;;;12.70;9.17;;;0.50;99.90;;;;;;5033525;28;20666;-91
2021/01/17 12:33:49;;;;;;;15.17;9.37;;;0.50;99.90;;;;;;5033758;28;20180;-92
2021/01/17 12:36:17;;;;;;;12.23;8.67;;;0.50;99.90;;;;;;5033858;28;20186;-90
2021/01/17 12:38:44;;;;;;;13.03;9.37;;;0.50;99.90;;;;;;5035681;28;20189;-91
2021/01/17 12:41:14;;;;;;;15.70;8.80;;;0.50;99.90;;;;;;5033803;28;20265;-92
2021/01/17 12:43:41;;;;;;;12.47;8.07;;;0.50;99.90;;;;;;5034895;28;20171;-90
2021/01/17 12:46:07;;;;;;;14.77;8.00;;;0.50;99.90;;;;;;5068123;28;20289;-91